Salt Flat, TX (79847)

10:26 AM MDT on August 31, 2015 (GMT -0600)
APRSWXNET | | Change Station
CLOSE
Current Station
Personal Weather Station
Location: Salt Flat, TX
Elevation: 3694 ft
Nearby Weather Stations

Elev 3694 ft 31.73 °N, 104.93 °W | Updated 23 minutes ago

Clear
Clear
80 °F
Feels Like 81 °F
N
2
Wind Variable Wind from ESE
Gusts 4.0 mph

Today
High -- | Low -- °F
--% Chance of Precip.
Yesterday
High -- | Low -- °F
Precip. -- in
6:35 AM 7:25 PM
Waning Gibbous, 95% visible
Pressure 29.99 in
Visibility 8.0 miles
Clouds Clear
Heat Index 81 °F
Dew Point 58 °F
Humidity 47%
Rainfall in
Snow Depth Not available.
UV 6 out of 12
Pollen 8.90 out of 12
Air Quality Not available.
Flu Activity Not available.
METAR KGDP 311551Z AUTO 23007KT 8SM CLR 24/10 A3022 RMK AO2 SLP154 T02390100 $
Pressure 29.99 in
Visibility 8.0 miles
Clouds Clear
Heat Index 81 °F
Dew Point 58 °F
Humidity 47%
Rainfall in
Snow Depth Not available.
UV 6 out of 12
Pollen 8.90 out of 12
Air Quality Not available.
Flu Activity Not available.
METAR KGDP 311551Z AUTO 23007KT 8SM CLR 24/10 A3022 RMK AO2 SLP154 T02390100 $

10-Day Weather Forecast

×

Almanac

Astronomy

Aug. 31, 2015 Rise Set
Actual Time
Civil Twilight
Nautical Twilight
Astronomical Twilight
Moon
Length of Visible Light
Length of Day
Tomorrow will be .
, % of the Moon is Illuminated

Today's Extremes

State Highs State Lows

Community

WunderPhotos

Upload Photos

1,851,302 photos uploaded!

WunderBlogs® & News

Nearby

Air Quality

  Air Quality AQ Index Pollutant
Not available.

Snow Depth

Station Depth Elevation

Earthquake Activity

City Distance Mag. Time & Date
Minimum magnitude displayed is 2.5.

Coastal Water Temperatures

Place Temperature

Stations

Nearby Weather Stations

Station Location Temp. Windchill Dew Point Humidity Wind Precip. Elev Updated Type